createdAt,value
2023-06-06T00:02:14.015Z,1.50
2023-06-06T00:04:41.225Z,1.50
2023-06-06T00:07:10.256Z,1.70
2023-06-06T00:09:37.472Z,1.45
2023-06-06T00:12:05.848Z,1.50
2023-06-06T00:14:33.653Z,1.52
2023-06-06T00:17:01.192Z,1.50
2023-06-06T00:19:29.219Z,1.70
2023-06-06T00:21:56.434Z,1.70
2023-06-06T00:24:23.587Z,1.75
2023-06-06T00:26:50.822Z,1.80
2023-06-06T00:29:18.252Z,1.60
2023-06-06T00:31:45.707Z,1.50
2023-06-06T00:34:13.061Z,1.75
2023-06-06T00:36:40.315Z,2.03
2023-06-06T00:39:07.914Z,1.77
2023-06-06T00:41:35.606Z,1.88
2023-06-06T00:44:02.860Z,1.73
2023-06-06T00:46:30.260Z,1.63
2023-06-06T00:48:59.511Z,1.67
2023-06-06T00:51:27.047Z,1.60
2023-06-06T00:53:58.019Z,1.80
2023-06-06T00:56:29.324Z,1.60
2023-06-06T00:58:58.656Z,1.83
2023-06-06T01:01:30.022Z,1.88
2023-06-06T01:04:02.106Z,1.90
2023-06-06T01:06:34.501Z,1.92
2023-06-06T01:09:07.152Z,2.00
2023-06-06T01:11:52.503Z,2.10
2023-06-06T01:14:27.228Z,2.20
2023-06-06T01:16:58.676Z,1.90
2023-06-06T01:19:30.487Z,1.80
2023-06-06T01:21:58.252Z,1.83
2023-06-06T01:24:28.110Z,2.03
2023-06-06T01:26:55.968Z,1.80
2023-06-06T01:29:23.824Z,2.30
2023-06-06T01:32:05.236Z,2.35
2023-06-06T01:34:43.088Z,2.60
2023-06-06T01:37:24.395Z,2.20
2023-06-06T01:39:56.571Z,1.92
2023-06-06T01:42:24.398Z,2.20
2023-06-06T01:44:54.744Z,2.15
2023-06-06T01:47:22.522Z,1.90
2023-06-06T01:49:50.525Z,2.03
2023-06-06T01:52:18.987Z,1.85
2023-06-06T01:54:46.275Z,2.00
2023-06-06T01:57:13.418Z,2.00
2023-06-06T01:59:41.798Z,2.00
2023-06-06T02:02:09.003Z,2.08
2023-06-06T02:04:37.329Z,2.05
2023-06-06T02:07:05.119Z,2.38
2023-06-06T02:09:32.342Z,2.20
2023-06-06T02:12:00.140Z,2.40
2023-06-06T02:14:27.292Z,2.10
2023-06-06T02:16:55.522Z,2.10
2023-06-06T02:19:22.887Z,2.35
2023-06-06T02:21:51.151Z,2.30
2023-06-06T02:24:18.814Z,2.28
2023-06-06T02:26:46.209Z,2.10
2023-06-06T02:29:13.360Z,2.22
2023-06-06T02:31:40.737Z,2.22
2023-06-06T02:34:08.307Z,2.50
2023-06-06T02:36:36.072Z,2.40
2023-06-06T02:39:04.599Z,2.42
2023-06-06T02:41:31.764Z,2.65
2023-06-06T02:43:58.928Z,2.95
2023-06-06T02:46:26.683Z,3.58
2023-06-06T02:48:54.051Z,3.40
2023-06-06T02:51:23.663Z,3.45
2023-06-06T02:53:50.923Z,3.47
2023-06-06T02:56:18.547Z,3.17
2023-06-06T02:58:45.942Z,3.28
2023-06-06T03:01:16.137Z,3.33
2023-06-06T03:03:43.617Z,3.25
2023-06-06T03:06:11.005Z,3.15
2023-06-06T03:08:41.846Z,3.63
2023-06-06T03:11:09.460Z,3.10
2023-06-06T03:13:37.024Z,3.08
2023-06-06T03:16:04.784Z,3.70
2023-06-06T03:18:33.646Z,3.97
2023-06-06T03:21:06.412Z,3.25
2023-06-06T03:23:41.494Z,3.35
2023-06-06T03:26:09.671Z,3.35
2023-06-06T03:28:37.070Z,3.25
2023-06-06T03:31:08.877Z,3.42
2023-06-06T03:33:46.457Z,4.03
2023-06-06T03:36:14.389Z,3.35
2023-06-06T03:38:41.835Z,3.63
2023-06-06T03:41:10.298Z,3.83
2023-06-06T03:43:38.977Z,3.92
2023-06-06T03:46:06.260Z,3.58
2023-06-06T03:48:33.402Z,3.78
2023-06-06T03:51:01.172Z,4.05
2023-06-06T03:53:28.296Z,3.92
2023-06-06T03:55:59.626Z,3.92
2023-06-06T03:58:26.786Z,3.72
2023-06-06T04:00:54.044Z,3.60
2023-06-06T04:03:22.227Z,3.60
2023-06-06T04:05:51.727Z,3.88
2023-06-06T04:08:18.992Z,3.45
2023-06-06T04:10:46.151Z,3.58
2023-06-06T04:13:16.019Z,3.95
2023-06-06T04:15:43.218Z,3.88
2023-06-06T04:18:11.094Z,3.85
2023-06-06T04:20:38.243Z,3.53
2023-06-06T04:23:06.172Z,4.22
2023-06-06T04:25:34.148Z,3.53
2023-06-06T04:28:01.588Z,4.13
2023-06-06T04:30:33.584Z,3.50
2023-06-06T04:33:01.826Z,3.67
2023-06-06T04:35:29.067Z,3.83
2023-06-06T04:37:58.416Z,4.00
2023-06-06T04:40:43.115Z,3.92
2023-06-06T04:43:24.571Z,4.25
2023-06-06T04:45:54.501Z,4.10
2023-06-06T04:48:26.295Z,3.70
2023-06-06T04:50:54.256Z,3.78
2023-06-06T04:53:22.490Z,4.15
2023-06-06T04:55:50.740Z,3.88
2023-06-06T04:58:17.870Z,4.03
2023-06-06T05:00:46.281Z,4.35
2023-06-06T05:03:17.672Z,4.45
2023-06-06T05:05:44.969Z,3.92
2023-06-06T05:08:12.146Z,4.40
2023-06-06T05:10:40.989Z,3.80
2023-06-06T05:13:08.116Z,5.03
2023-06-06T05:15:35.274Z,5.72
2023-06-06T05:18:02.492Z,6.00
2023-06-06T05:20:30.239Z,6.78
2023-06-06T05:22:57.386Z,6.75
2023-06-06T05:25:24.613Z,6.72
2023-06-06T05:27:52.883Z,7.10
2023-06-06T05:30:20.119Z,6.47
2023-06-06T05:32:47.300Z,6.88
2023-06-06T05:35:14.486Z,7.28
2023-06-06T05:37:42.525Z,7.10
2023-06-06T05:40:10.714Z,7.20
2023-06-06T05:42:38.894Z,7.40
2023-06-06T05:45:06.623Z,7.68
2023-06-06T05:47:33.799Z,8.50
2023-06-06T05:50:00.996Z,7.78
2023-06-06T05:52:28.113Z,8.55
2023-06-06T05:55:03.829Z,8.32
2023-06-06T05:57:31.537Z,8.38
2023-06-06T06:00:02.275Z,8.75
2023-06-06T06:02:39.705Z,8.77
2023-06-06T06:05:07.894Z,8.98
2023-06-06T06:07:35.092Z,8.57
2023-06-06T06:10:03.356Z,8.65
2023-06-06T06:12:30.585Z,8.40
2023-06-06T06:14:57.791Z,8.68
2023-06-06T06:17:24.988Z,8.50
2023-06-06T06:19:52.410Z,9.70
2023-06-06T06:22:19.685Z,9.05
2023-06-06T06:24:46.908Z,9.55
2023-06-06T06:27:14.082Z,8.68
2023-06-06T06:29:41.579Z,8.88
2023-06-06T06:32:08.733Z,8.60
2023-06-06T06:34:36.054Z,9.20
2023-06-06T06:37:03.368Z,8.88
2023-06-06T06:39:31.059Z,8.68
2023-06-06T06:41:58.260Z,7.95
2023-06-06T06:44:34.357Z,7.78
2023-06-06T06:47:04.537Z,7.40
2023-06-06T06:49:31.699Z,7.68
2023-06-06T06:51:59.174Z,8.43
2023-06-06T06:54:27.167Z,7.85
2023-06-06T06:56:55.063Z,7.93
2023-06-06T06:59:22.374Z,7.50
2023-06-06T07:01:50.753Z,7.53
2023-06-06T07:04:18.265Z,7.25
2023-06-06T07:06:46.041Z,8.13
2023-06-06T07:09:15.481Z,7.85
2023-06-06T07:11:42.674Z,7.53
2023-06-06T07:14:09.845Z,8.10
2023-06-06T07:16:37.163Z,7.93
2023-06-06T07:19:04.319Z,8.13
2023-06-06T07:21:31.492Z,7.20
2023-06-06T07:23:58.689Z,7.80
2023-06-06T07:26:27.757Z,7.65
2023-06-06T07:28:54.978Z,7.97
2023-06-06T07:31:22.530Z,8.05
2023-06-06T07:33:49.758Z,9.95
2023-06-06T07:36:16.981Z,8.10
2023-06-06T07:38:44.130Z,7.43
2023-06-06T07:41:11.943Z,7.50
2023-06-06T07:43:39.301Z,7.57
2023-06-06T07:46:06.550Z,7.25
2023-06-06T07:48:34.691Z,7.40
2023-06-06T07:51:01.877Z,8.02
2023-06-06T07:53:28.996Z,8.18
2023-06-06T07:55:56.466Z,7.57
2023-06-06T07:58:27.220Z,7.25
2023-06-06T08:00:54.418Z,6.68
2023-06-06T08:03:21.628Z,6.28
2023-06-06T08:05:48.998Z,6.65
2023-06-06T08:08:16.353Z,7.35
2023-06-06T08:10:43.470Z,7.05
2023-06-06T08:13:10.799Z,5.97
2023-06-06T08:15:37.928Z,5.85
2023-06-06T08:18:05.275Z,5.95
2023-06-06T08:20:32.592Z,7.13
2023-06-06T08:22:59.727Z,5.57
2023-06-06T08:25:26.836Z,6.22
2023-06-06T08:27:54.046Z,5.30
2023-06-06T08:30:22.239Z,6.38
2023-06-06T08:32:50.665Z,6.00
2023-06-06T08:35:20.549Z,6.18
2023-06-06T08:37:48.432Z,6.18
2023-06-06T08:40:16.138Z,5.53
2023-06-06T08:42:51.456Z,6.30
2023-06-06T08:45:21.921Z,5.75
2023-06-06T08:47:50.032Z,5.72
2023-06-06T08:50:17.603Z,6.28
2023-06-06T08:52:45.747Z,6.00
2023-06-06T08:55:13.344Z,5.25
2023-06-06T08:57:43.097Z,5.07
2023-06-06T09:00:12.607Z,5.32
2023-06-06T09:02:42.620Z,5.07
2023-06-06T09:05:12.634Z,5.38
2023-06-06T09:07:39.949Z,5.38
2023-06-06T09:10:08.013Z,5.70
2023-06-06T09:12:42.372Z,4.93
2023-06-06T09:15:10.767Z,5.93
2023-06-06T09:17:39.039Z,5.60
2023-06-06T09:20:11.053Z,5.80
2023-06-06T09:22:42.704Z,5.22
2023-06-06T09:25:23.545Z,5.50
2023-06-06T09:27:58.731Z,5.50
2023-06-06T09:30:27.770Z,6.32
2023-06-06T09:33:01.419Z,6.10
2023-06-06T09:35:32.520Z,6.13
2023-06-06T09:38:06.931Z,6.40
2023-06-06T09:40:34.394Z,6.22
2023-06-06T09:43:01.531Z,6.47
2023-06-06T09:45:28.799Z,6.75
2023-06-06T09:47:56.036Z,7.13
2023-06-06T09:50:23.378Z,6.53
2023-06-06T09:52:52.444Z,6.65
2023-06-06T09:55:20.596Z,5.60
2023-06-06T09:57:49.057Z,6.45
2023-06-06T10:00:17.078Z,6.15
2023-06-06T10:02:46.592Z,6.32
2023-06-06T10:05:15.942Z,5.88
2023-06-06T10:07:46.406Z,5.68
2023-06-06T10:10:18.389Z,6.28
2023-06-06T10:12:46.367Z,5.80
2023-06-06T10:15:13.861Z,5.78
2023-06-06T10:17:43.000Z,5.75
2023-06-06T10:20:12.895Z,5.32
2023-06-06T10:22:41.749Z,5.70
2023-06-06T10:25:14.850Z,5.63
2023-06-06T10:28:08.436Z,5.57
2023-06-06T10:30:55.007Z,5.47
2023-06-06T10:33:34.021Z,5.50
2023-06-06T10:36:05.581Z,5.65
2023-06-06T10:38:37.466Z,5.88
2023-06-06T10:41:20.008Z,5.15
2023-06-06T10:43:47.084Z,5.40
2023-06-06T10:46:15.147Z,5.22
2023-06-06T10:48:46.724Z,5.30
2023-06-06T10:51:35.747Z,5.03
2023-06-06T10:54:28.050Z,5.25
2023-06-06T10:56:56.233Z,4.85
2023-06-06T10:59:27.509Z,4.40
2023-06-06T11:01:56.252Z,4.90
2023-06-06T11:04:26.620Z,6.30
2023-06-06T11:06:59.312Z,5.78
2023-06-06T11:09:30.523Z,6.05
2023-06-06T11:12:13.257Z,6.20
2023-06-06T11:15:04.324Z,5.05
2023-06-06T11:17:51.104Z,4.85
2023-06-06T11:20:19.527Z,5.25
2023-06-06T11:23:04.590Z,5.13
2023-06-06T11:25:33.895Z,4.97
2023-06-06T11:28:01.236Z,5.07
2023-06-06T11:30:36.234Z,4.40
2023-06-06T11:33:10.881Z,5.10
2023-06-06T11:35:40.719Z,4.50
2023-06-06T11:38:08.416Z,4.60
2023-06-06T11:40:35.653Z,4.05
2023-06-06T11:43:03.484Z,3.85
2023-06-06T11:45:32.498Z,4.25
2023-06-06T11:48:14.479Z,3.83
2023-06-06T11:50:45.690Z,3.70
2023-06-06T11:53:12.794Z,3.08
2023-06-06T11:55:40.299Z,3.38
2023-06-06T11:58:08.176Z,3.78
2023-06-06T12:00:35.710Z,3.38
2023-06-06T12:03:03.054Z,3.85
2023-06-06T12:05:31.587Z,3.72
2023-06-06T12:08:00.464Z,2.97
2023-06-06T12:10:32.387Z,3.30
2023-06-06T12:13:00.280Z,3.50
2023-06-06T12:15:49.390Z,3.50
2023-06-06T12:18:17.889Z,3.42
2023-06-06T12:20:47.519Z,3.42
2023-06-06T12:23:34.860Z,3.63
2023-06-06T12:26:03.580Z,3.38
2023-06-06T12:28:30.743Z,3.35
2023-06-06T12:30:58.764Z,3.10
2023-06-06T12:33:44.382Z,2.50
2023-06-06T12:36:22.905Z,2.88
2023-06-06T12:39:04.266Z,2.95
2023-06-06T12:41:42.883Z,2.80
2023-06-06T12:44:16.189Z,2.42
2023-06-06T12:46:44.683Z,2.25
2023-06-06T12:49:13.736Z,2.50
2023-06-06T12:51:41.114Z,1.77
2023-06-06T12:54:08.358Z,2.30
2023-06-06T12:56:35.557Z,2.00
2023-06-06T12:59:02.719Z,2.00
2023-06-06T13:01:30.060Z,1.80
2023-06-06T13:03:58.076Z,1.80
2023-06-06T13:06:25.962Z,1.70
2023-06-06T13:08:53.143Z,1.30
2023-06-06T13:11:20.597Z,3.20
2023-06-06T13:13:48.424Z,2.05
2023-06-06T13:16:15.816Z,1.55
2023-06-06T13:18:43.284Z,1.30
2023-06-06T13:21:10.777Z,1.90
2023-06-06T13:23:38.094Z,1.50
2023-06-06T13:26:05.724Z,1.30
2023-06-06T13:28:33.397Z,1.42
2023-06-06T13:31:00.602Z,1.75
2023-06-06T13:33:28.421Z,1.63
2023-06-06T13:35:55.610Z,1.83
2023-06-06T13:38:24.300Z,1.73
2023-06-06T13:40:51.573Z,1.70
2023-06-06T13:43:18.867Z,1.70
2023-06-06T13:45:46.066Z,1.88
2023-06-06T13:48:13.313Z,2.05
2023-06-06T13:50:41.078Z,1.73
2023-06-06T13:53:08.380Z,1.60
2023-06-06T13:55:35.945Z,1.95
2023-06-06T13:58:04.551Z,2.10
2023-06-06T14:00:33.295Z,1.88
2023-06-06T14:03:01.751Z,1.98
2023-06-06T14:05:30.349Z,2.42
2023-06-06T14:07:57.586Z,2.10
2023-06-06T14:10:24.772Z,2.25
2023-06-06T14:12:51.973Z,2.22
2023-06-06T14:15:19.277Z,2.25
2023-06-06T14:17:47.035Z,2.35
2023-06-06T14:20:21.614Z,2.42
2023-06-06T14:22:49.663Z,2.67
2023-06-06T14:25:18.054Z,2.85
2023-06-06T14:27:46.105Z,2.75
2023-06-06T14:30:13.805Z,3.30
2023-06-06T14:32:41.396Z,2.67
2023-06-06T14:35:10.188Z,2.72
2023-06-06T14:37:37.847Z,3.00
2023-06-06T14:40:07.112Z,2.83
2023-06-06T14:42:34.728Z,3.15
2023-06-06T14:45:02.059Z,3.08
2023-06-06T14:47:29.332Z,3.17
2023-06-06T14:49:58.658Z,2.97
2023-06-06T14:52:25.799Z,3.08
2023-06-06T14:54:52.979Z,2.63
2023-06-06T14:57:21.084Z,2.63
2023-06-06T14:59:48.365Z,3.00
2023-06-06T15:02:15.952Z,2.50
2023-06-06T15:04:43.359Z,2.47
2023-06-06T15:07:12.011Z,2.88
2023-06-06T15:09:39.368Z,2.78
2023-06-06T15:12:12.454Z,2.78
2023-06-06T15:14:41.092Z,2.80
2023-06-06T15:17:09.215Z,2.70
2023-06-06T15:19:36.631Z,2.72
2023-06-06T15:22:06.848Z,2.75
2023-06-06T15:24:34.879Z,2.70
2023-06-06T15:27:03.279Z,2.63
2023-06-06T15:29:30.474Z,2.58
2023-06-06T15:31:59.885Z,2.70
2023-06-06T15:34:27.329Z,2.50
2023-06-06T15:36:54.837Z,2.78
2023-06-06T15:39:22.022Z,3.88
2023-06-06T15:41:49.204Z,2.92
2023-06-06T15:44:16.553Z,4.20
2023-06-06T15:46:44.124Z,3.85
2023-06-06T15:49:12.357Z,3.70
2023-06-06T15:51:39.479Z,4.05
2023-06-06T15:54:09.891Z,2.92
2023-06-06T15:59:04.224Z,3.35
2023-06-06T16:01:31.420Z,3.33
2023-06-06T16:03:59.659Z,3.67
2023-06-06T16:06:27.650Z,3.40
2023-06-06T16:08:54.870Z,3.63
2023-06-06T16:11:22.342Z,3.00
2023-06-06T16:13:49.591Z,2.85
2023-06-06T16:16:17.010Z,2.42
2023-06-06T16:18:44.468Z,2.97
2023-06-06T16:21:11.652Z,2.88
2023-06-06T16:23:39.738Z,2.80
2023-06-06T16:26:07.387Z,3.65
2023-06-06T16:28:34.847Z,2.97
2023-06-06T16:31:02.051Z,2.88
2023-06-06T16:33:29.265Z,3.15
2023-06-06T16:35:56.403Z,3.00
2023-06-06T16:38:23.531Z,3.03
2023-06-06T16:40:50.660Z,3.00
2023-06-06T16:43:17.807Z,2.85
2023-06-06T16:45:45.026Z,2.55
2023-06-06T16:48:15.719Z,2.92
2023-06-06T16:50:43.405Z,3.22
2023-06-06T16:53:10.580Z,2.65
2023-06-06T16:55:37.739Z,3.40
2023-06-06T16:58:04.884Z,3.85
2023-06-06T17:00:32.181Z,3.65
2023-06-06T17:02:59.563Z,2.80
2023-06-06T17:05:26.860Z,2.80
2023-06-06T17:07:53.999Z,3.63
2023-06-06T17:10:21.383Z,3.10
2023-06-06T17:12:48.637Z,3.15
2023-06-06T17:15:16.178Z,3.30
2023-06-06T17:17:44.080Z,2.85
2023-06-06T17:20:11.677Z,2.97
2023-06-06T17:22:38.838Z,3.00
2023-06-06T17:25:06.136Z,3.38
2023-06-06T17:27:33.354Z,3.20
2023-06-06T17:30:04.434Z,3.03
2023-06-06T17:32:32.380Z,2.90
2023-06-06T17:35:00.194Z,3.22
2023-06-06T17:37:27.383Z,3.00
2023-06-06T17:39:54.500Z,3.15
2023-06-06T17:42:21.682Z,3.00
2023-06-06T17:44:48.818Z,2.88
2023-06-06T17:47:17.420Z,3.35
2023-06-06T17:49:44.727Z,3.55
2023-06-06T17:52:12.432Z,3.30
2023-06-06T17:54:39.561Z,3.45
2023-06-06T17:57:06.788Z,3.63
2023-06-06T17:59:34.431Z,3.63
2023-06-06T18:02:02.606Z,2.80
2023-06-06T18:04:29.784Z,3.20
2023-06-06T18:06:57.095Z,3.80
2023-06-06T18:09:24.279Z,3.42
2023-06-06T18:11:52.258Z,3.10
2023-06-06T18:14:19.604Z,3.42
2023-06-06T18:16:46.877Z,3.30
2023-06-06T18:19:14.497Z,3.20
2023-06-06T18:21:41.898Z,3.00
2023-06-06T18:24:10.016Z,2.83
2023-06-06T18:26:37.334Z,2.67
2023-06-06T18:29:06.401Z,2.70
2023-06-06T18:31:38.445Z,2.90
2023-06-06T18:34:07.196Z,2.65
2023-06-06T18:36:34.765Z,2.60
2023-06-06T18:39:02.606Z,3.05
2023-06-06T18:41:29.958Z,3.00
2023-06-06T18:43:57.104Z,2.80
2023-06-06T18:46:24.504Z,2.97
2023-06-06T18:48:51.773Z,2.40
2023-06-06T18:51:18.904Z,2.55
2023-06-06T18:53:46.886Z,2.70
2023-06-06T18:56:14.592Z,2.50
2023-06-06T18:58:42.188Z,2.53
2023-06-06T19:01:09.369Z,2.38
2023-06-06T19:03:37.348Z,2.53
2023-06-06T19:06:04.844Z,2.67
2023-06-06T19:08:32.050Z,2.33
2023-06-06T19:10:59.426Z,2.45
2023-06-06T19:13:26.704Z,2.60
2023-06-06T19:15:53.990Z,3.47
2023-06-06T19:18:31.587Z,2.95
2023-06-06T19:20:59.994Z,2.70
2023-06-06T19:23:27.233Z,2.53
2023-06-06T19:25:55.116Z,2.63
2023-06-06T19:28:22.223Z,2.72
2023-06-06T19:30:49.383Z,2.42
2023-06-06T19:33:17.987Z,2.70
2023-06-06T19:35:47.046Z,2.70
2023-06-06T19:38:14.340Z,2.47
2023-06-06T19:40:41.464Z,3.03
2023-06-06T19:43:08.664Z,2.92
2023-06-06T19:45:35.995Z,2.75
2023-06-06T19:48:03.733Z,2.72
2023-06-06T19:50:31.017Z,2.97
2023-06-06T19:52:58.186Z,3.13
2023-06-06T19:55:25.501Z,2.55
2023-06-06T19:57:52.784Z,3.30
2023-06-06T20:00:20.303Z,2.95
2023-06-06T20:02:50.552Z,2.72
2023-06-06T20:05:17.983Z,3.58
2023-06-06T20:07:45.167Z,3.15
2023-06-06T20:10:13.153Z,2.78
2023-06-06T20:12:41.168Z,2.40
2023-06-06T20:15:09.067Z,2.92
2023-06-06T20:17:38.492Z,2.97
2023-06-06T20:20:09.264Z,3.03
2023-06-06T20:22:36.512Z,3.10
2023-06-06T20:25:05.230Z,2.15
2023-06-06T20:27:32.446Z,2.63
2023-06-06T20:29:59.758Z,2.63
2023-06-06T20:32:27.030Z,2.78
2023-06-06T20:34:54.216Z,2.78
2023-06-06T20:37:21.598Z,2.60
2023-06-06T20:40:14.543Z,2.75
2023-06-06T20:42:41.729Z,2.95
2023-06-06T20:45:09.393Z,2.80
2023-06-06T20:47:39.585Z,2.70
2023-06-06T20:50:10.670Z,2.90
2023-06-06T20:52:38.468Z,2.72
2023-06-06T20:55:09.191Z,2.35
2023-06-06T20:57:38.178Z,2.63
2023-06-06T21:00:06.665Z,2.60
2023-06-06T21:02:34.511Z,2.58
2023-06-06T21:05:02.972Z,2.58
2023-06-06T21:07:30.198Z,2.60
2023-06-06T21:09:57.315Z,2.80
2023-06-06T21:12:24.614Z,2.42
2023-06-06T21:14:52.079Z,3.28
2023-06-06T21:17:21.436Z,2.80
2023-06-06T21:19:48.624Z,2.72
2023-06-06T21:22:16.576Z,2.80
2023-06-06T21:24:43.710Z,2.65
2023-06-06T21:27:10.857Z,2.80
2023-06-06T21:29:38.086Z,2.67
2023-06-06T21:32:05.591Z,3.17
2023-06-06T21:34:32.879Z,2.40
2023-06-06T21:37:00.263Z,2.85
2023-06-06T21:39:27.443Z,2.72
2023-06-06T21:41:54.568Z,2.90
2023-06-06T21:44:21.716Z,3.20
2023-06-06T21:46:49.022Z,2.80
2023-06-06T21:49:18.621Z,2.85
2023-06-06T21:51:45.872Z,3.13
2023-06-06T21:54:13.645Z,3.10
2023-06-06T21:56:40.795Z,2.65
2023-06-06T21:59:07.934Z,3.33
2023-06-06T22:01:35.073Z,3.13
2023-06-06T22:04:02.365Z,3.65
2023-06-06T22:06:29.616Z,3.50
2023-06-06T22:08:56.785Z,3.22
2023-06-06T22:11:23.979Z,2.97
2023-06-06T22:13:51.133Z,3.13
2023-06-06T22:16:18.303Z,2.90
2023-06-06T22:18:45.480Z,2.63
2023-06-06T22:21:12.644Z,3.10
2023-06-06T22:23:41.205Z,2.83
2023-06-06T22:26:12.189Z,2.80
2023-06-06T22:28:40.237Z,3.13
2023-06-06T22:31:07.442Z,3.25
2023-06-06T22:33:36.664Z,3.28
2023-06-06T22:36:04.260Z,3.20
2023-06-06T22:38:31.459Z,3.10
2023-06-06T22:40:59.844Z,2.97
2023-06-06T22:43:26.958Z,3.15
2023-06-06T22:45:54.132Z,2.95
2023-06-06T22:48:21.465Z,3.70
2023-06-06T22:50:48.725Z,2.97
2023-06-06T22:53:18.967Z,3.03
2023-06-06T22:55:47.094Z,2.95
2023-06-06T22:58:14.727Z,3.25
2023-06-06T23:00:41.971Z,3.00
2023-06-06T23:03:09.280Z,2.80
2023-06-06T23:05:36.491Z,3.00
2023-06-06T23:08:04.075Z,3.13
2023-06-06T23:10:31.642Z,3.05
2023-06-06T23:12:58.775Z,2.88
2023-06-06T23:15:27.928Z,3.05
2023-06-06T23:17:55.293Z,2.90
2023-06-06T23:20:22.537Z,2.78
2023-06-06T23:22:49.643Z,3.05
2023-06-06T23:25:16.892Z,2.70
2023-06-06T23:27:44.180Z,3.10
2023-06-06T23:30:14.223Z,2.90
2023-06-06T23:32:41.517Z,3.15
2023-06-06T23:35:09.414Z,2.97
2023-06-06T23:37:36.561Z,2.63
2023-06-06T23:40:05.369Z,2.83
2023-06-06T23:42:32.792Z,2.72
2023-06-06T23:45:00.021Z,3.17
2023-06-06T23:47:27.241Z,2.78
2023-06-06T23:49:54.496Z,3.63
2023-06-06T23:52:21.673Z,3.20
2023-06-06T23:54:48.946Z,3.65
2023-06-06T23:57:17.118Z,3.22
2023-06-06T23:59:44.276Z,3.75
